首页
METAR-TAF:

METAR-TAF

机场 :

欧里亚克, 法国

纬度: 44-53N, 经度: 002-25E, 海拔: 639米

当前天气观测

该预报发布于33分钟前的23:30 UTC
温度 13°C
湿度 88%
气压 1017 hPa
能见度10公里或以上
少量云层高于2200英尺
阴天层高于3100英尺

METAR: LFLW 262330Z AUTO /////KT 9999 FEW022 OVC031 13/11 Q1017

时间: 02:03 (00:03 UTC)

预报

该预报发布于10小时和3分钟前的14:00 UTC
预报有效从26日的 15点(UTC)到 26日的 24点(UTC)
风速10节,风向西北
能见度10公里或以上
散云层高于2200英尺
多云层高于8000英尺
几率 40% :
短暂存在
从 26日的 15点(UTC)到 26日的 17点(UTC)
风速12节,风向西北,有时为22节阵风
少量云层高于1800英尺, 塔状积云.
多云层高于2000英尺
成为
从 26日的 17点(UTC)到 26日的 20点(UTC)
风速5节,风向西北
多云层高于3500英尺
短暂存在
从 26日的 21点(UTC)到 26日的 24点(UTC)
阴天层高于1200英尺

TAF: LFLW 261400Z 2615/2624 32010KT 9999 SCT022 BKN080 PROB40 TEMPO 2615/2617 32012G22KT FEW018TCU BKN020 BECMG 2617/2620 32005KT BKN035 TEMPO 2621/2624 OVC012

超过4000个机场的气象观测和天气预报(METAR&TAF报告)。

可查询的气象台以黄色和红色小点在地图上表示。

将鼠标移到小点上方,可查看气象台名称。

然后点击查看天气观测和预报。

如需切换地图:点击带黑十字的绿色按钮放大地图;点击带横线的绿色按钮缩小地图;或者点击绿色箭头查看邻近地区的地图。


METAR-TAF: